Station: Portable Wn01 (Water Nsw)  

  Atmospheric Gas Attenuation - ITU Rec 676-11   ----------------- dB/100km -----------------
Date Time Temp RH % AH g/m3 Dew Point Wind Direction Speed kph Gust kph Barometer mB Rainfall Since 9am 24GHz 47GHz 76GHz 122GHz 134GHz 241GHz
08/05 12:20 16.2 47 6.48 4.9 13 17 1013.1 0 15.0 22.0 30.7 80.2 69.4 237.0
08/05 12:10 16.1 49 6.72 5.4 11 15 1013.1 0 15.5 22.4 31.6 82.6 72.3 247.3
08/05 12:00 16 48 6.54 5 11 15 1013.1 0 15.1 22.1 31.0 81.0 70.2 240.1
08/05 11:50 15.8 46 6.19 4.4 11 15 1013.1 0 14.4 21.7 29.8 77.8 66.3 226.2
08/05 11:40 15.5 48 6.34 4.5 11 17 1013.1 0 14.7 22.0 30.5 79.5 68.3 233.2
08/05 11:30 15.6 48 6.38 4.7 9 11 1013.1 0 14.8 22.0 30.6 79.8 68.7 234.6
08/05 11:20 15.5 49 6.48 4.8 11 13 1013.1 0 15.0 22.2 31.0 80.9 70.0 239.0
08/05 11:10 15.3 49 6.4 4.8 9 13 1013.1 0 14.8 22.1 30.8 80.3 69.2 236.3
08/05 11:00 14.9 51 6.5 4.9 11 13 1013.1 0 15.1 22.4 31.3 81.7 70.7 241.7
08/05 10:50 14.9 51 6.5 4.8 11 15 1013.1 0 15.1 22.4 31.3 81.7 70.7 241.7
08/05 10:40 14.4 52 6.43 4.8 13 15 1013.1 0 14.9 22.4 31.2 81.5 70.3 240.2
08/05 10:30 14.3 51 6.27 4.4 11 17 1013.1 0 14.6 22.2 30.7 80.1 68.5 233.8
08/05 10:20 14.1 52 6.31 4.5 11 15 1013.1 0 14.7 22.3 30.9 80.6 69.2 236.0
08/05 10:10 14.2 53 6.47 4.7 9 13 1013.1 0 15.0 22.5 31.4 82.1 71.0 242.5
08/05 10:00 14.2 51 6.23 4.4 9 13 1013.1 0 14.5 22.1 30.6 79.8 68.1 232.4
08/05 09:50 13.6 52 6.12 4.1 11 15 1013.1 0 14.3 22.1 30.4 79.3 67.3 229.4
08/05 09:40 13.3 54 6.24 4.2 11 19 1013.1 0 14.6 22.4 30.9 80.8 69.0 235.4
08/05 09:30 12.9 55 6.2 4.1 13 17 1013.1 0 14.5 22.4 30.9 80.8 68.9 234.9
08/05 09:20 12.7 57 6.35 4.4 11 15 1013.1 0 14.8 22.7 31.6 82.5 70.9 241.9
08/05 09:00 12.2 57 6.15 4.1 11 15 1013.1 0 14.4 22.5 31.0 81.0 68.9 234.8
08/05 08:50 12 58 6.18 4.1 13 15 1013.1 0 14.5 22.6 31.2 81.5 69.4 236.6
08/05 08:40 11.7 59 6.17 4 13 17 1013.1 0 14.5 22.6 31.3 81.7 69.5 237.1
08/05 08:30 11.4 60 6.16 3.9 11 15 1013.1 0 14.5 22.7 31.4 81.9 69.7 237.5
08/05 08:20 11 60 6.01 3.7 13 17 1013.1 0 14.2 22.6 31.0 80.8 68.2 232.2
08/05 08:10 10.8 62 6.13 3.8 11 13 1013.1 0 14.4 22.8 31.5 82.2 69.8 238.0
08/05 08:00 10.5 62 6.01 3.6 11 15 1013.1 0 14.2 22.7 31.1 81.3 68.6 233.6
08/05 07:50 10.2 64 6.09 3.7 13 13 1013.1 0 14.4 22.9 31.6 82.4 69.9 238.0
08/05 07:40 9.9 65 6.07 3.7 11 13 1013.1 0 14.3 22.9 31.6 82.5 69.9 238.1
08/05 07:30 9.6 65 5.96 3.3 9 11 1013.1 0 14.1 22.9 31.3 81.7 68.8 234.1
08/05 07:20 9.3 66 5.93 3.3 9 11 1013.1 0 14.1 22.9 31.3 81.7 68.6 233.6
08/05 07:10 8.9 68 5.96 3.3 9 13 1013.1 0 14.1 23.0 31.6 82.4 69.4 236.1
08/05 07:00 8.7 68 5.88 3.2 9 11 1013.1 0 14.0 23.0 31.3 81.8 68.5 233.2
08/05 06:50 8.3 69 5.82 3 7 9 1013.1 0 13.9 23.0 31.3 81.6 68.1 231.6
08/05 06:40 8.3 69 5.82 3 9 13 1013.1 0 13.9 23.0 31.3 81.6 68.1 231.6
08/05 06:30 8.2 69 5.78 2.8 9 11 1013.1 0 13.8 22.9 31.2 81.3 67.7 230.1
08/05 06:20 8.2 70 5.86 3 7 11 1013.1 0 14.0 23.1 31.5 82.1 68.7 233.7
08/05 06:10 8.3 69 5.82 2.9 7 13 1013.1 0 13.9 23.0 31.3 81.6 68.1 231.6
08/05 06:00 8.3 68 5.73 2.7 11 13 1013.1 0 13.7 22.8 30.9 80.7 67.0 227.6
08/05 05:50 8.2 68 5.7 2.7 9 15 1013.1 0 13.6 22.8 30.8 80.5 66.7 226.6
08/05 05:40 8.1 68 5.66 2.6 9 13 1013.1 0 13.5 22.8 30.7 80.2 66.3 225.1
08/05 05:30 8.1 68 5.66 2.5 9 11 1013.1 0 13.5 22.8 30.7 80.2 66.3 225.1
08/05 05:20 8.1 68 5.66 2.5 9 11 1013.1 0 13.5 22.8 30.7 80.2 66.3 225.1
08/05 05:10 8.1 67 5.58 2.3 9 11 1013.1 0 13.4 22.6 30.4 79.3 65.2 221.5
08/05 05:00 8.2 66 5.53 2.3 11 15 1013.1 0 13.3 22.5 30.2 78.7 64.5 219.0
08/05 04:50 8.2 66 5.53 2.3 9 13 1013.1 0 13.3 22.5 30.2 78.7 64.5 219.0
08/05 04:40 8.2 65 5.45 2.1 9 13 1013.1 0 13.1 22.4 29.9 77.9 63.5 215.5
08/05 04:30 8.1 65 5.41 1.9 9 11 1013.1 0 13.0 22.4 29.8 77.6 63.1 214.0
08/05 04:20 8 65 5.38 1.9 9 11 1013.1 0 12.9 22.4 29.7 77.4 62.8 212.9
08/05 04:10 7.8 66 5.39 1.9 7 9 1013.1 0 13.0 22.4 29.8 77.7 63.1 213.9
08/05 04:00 7.8 67 5.47 2 7 9 1013.1 0 13.1 22.5 30.1 78.5 64.1 217.4
08/05 03:50 7.9 66 5.42 1.9 7 9 1013.1 0 13.0 22.4 29.9 77.9 63.4 214.9
08/05 03:40 7.9 65 5.34 1.8 9 11 1013.1 0 12.9 22.3 29.6 77.1 62.4 211.4
08/05 03:30 7.9 65 5.34 1.7 9 11 1013.1 0 12.9 22.3 29.6 77.1 62.4 211.4
08/05 03:20 7.9 65 5.34 1.8 9 13 1013.1 0 12.9 22.3 29.6 77.1 62.4 211.4
08/05 03:10 8 65 5.38 1.8 11 15 1013.1 0 12.9 22.4 29.7 77.4 62.8 212.9
08/05 03:00 7.9 65 5.34 1.8 9 13 1013.1 0 12.9 22.3 29.6 77.1 62.4 211.4
08/05 02:50 7.9 64 5.26 1.5 9 11 1013.1 0 12.7 22.2 29.3 76.3 61.4 207.9
08/05 02:40 7.8 65 5.31 1.6 7 11 1013.1 0 12.8 22.3 29.5 76.9 62.1 210.4
08/05 02:30 7.8 64 5.23 1.5 9 11 1013.1 0 12.6 22.2 29.2 76.1 61.1 206.8
08/05 02:20 7.7 65 5.27 1.6 7 9 1013.1 0 12.7 22.3 29.4 76.6 61.7 208.8
08/05 02:10 7.7 65 5.27 1.6 7 11 1013.1 0 12.7 22.3 29.4 76.6 61.7 208.8
08/05 02:00 7.7 65 5.27 1.5 7 11 1013.1 0 12.7 22.3 29.4 76.6 61.7 208.8
08/05 01:50 7.7 64 5.19 1.4 11 13 1013.1 0 12.5 22.1 29.1 75.8 60.6 205.3
08/05 01:40 7.6 65 5.24 1.4 7 11 1013.1 0 12.7 22.2 29.3 76.4 61.4 207.8
08/05 01:30 7.5 64 5.13 1.2 9 11 1013.1 0 12.4 22.1 28.9 75.3 60.0 203.2
08/05 01:20 7.5 64 5.13 1.1 9 11 1013.1 0 12.4 22.1 28.9 75.3 60.0 203.2
08/05 01:10 7.4 64 5.09 1 7 11 1013.1 0 12.3 22.1 28.8 75.0 59.6 201.7
08/05 01:00 7.3 63 4.98 0.8 7 11 1013.1 0 12.1 21.9 28.4 74.0 58.3 197.1
08/05 00:50 7.2 65 5.1 1 7 11 1013.1 0 12.4 22.1 28.9 75.3 59.9 202.6
08/05 00:40 7.2 64 5.03 0.9 7 11 1013.1 0 12.2 22.0 28.7 74.6 59.0 199.6
08/05 00:30 7.1 63 4.92 0.6 7 11 1013.1 0 12.0 21.9 28.3 73.6 57.7 195.0
08/05 00:10 7.1 63 4.92 0.5 9 15 1013.1 0 12.0 21.9 28.3 73.6 57.7 195.0
08/05 00:00 7.1 62 4.84 0.4 9 13 1013.1 0 11.8 21.8 28.0 72.8 56.7 191.5
07/05 23:50 7.1 61 4.76 0.2 9 15 1013.1 0 11.6 21.6 27.7 72.0 55.7 188.0
07/05 23:40 7.1 60 4.68 0 7 11 1013.1 0 11.5 21.5 27.4 71.2 54.7 184.5
07/05 23:30 7 60 4.65 -0.1 6 7 1013.1 0 11.4 21.5 27.3 71.0 54.4 183.4
07/05 23:20 7.1 60 4.68 -0.2 7 9 1013.1 0 11.5 21.5 27.4 71.2 54.7 184.5
07/05 23:10 7.1 59 4.6 -0.3 7 9 1013.1 0 11.3 21.4 27.1 70.4 53.8 181.0
07/05 23:00 7.2 59 4.63 -0.2 7 9 1013.1 0 11.4 21.4 27.2 70.6 54.1 182.1
07/05 22:50 7.3 59 4.66 -0.1 7 9 1013.1 0 11.4 21.4 27.2 70.8 54.4 183.2
07/05 22:40 7.3 59 4.66 -0.2 7 9 1013.1 0 11.4 21.4 27.2 70.8 54.4 183.2
07/05 22:30 7.4 57 4.54 -0.4 7 11 1013.1 0 11.2 21.2 26.8 69.5 52.8 177.8
07/05 22:20 7.5 57 4.56 -0.3 9 11 1013.1 0 11.2 21.2 26.8 69.6 53.0 178.4
07/05 22:10 7.6 57 4.59 -0.4 11 13 1013.1 0 11.3 21.3 26.9 69.9 53.3 179.5
07/05 22:00 7.6 58 4.67 -0.1 11 13 1013.1 0 11.4 21.4 27.2 70.6 54.3 182.9
07/05 21:50 7.7 57 4.62 -0.2 11 13 1013.1 0 11.3 21.3 27.0 70.1 53.6 180.6
07/05 21:40 7.7 57 4.62 -0.2 11 13 1013.1 0 11.3 21.3 27.0 70.1 53.6 180.6
07/05 21:30 7.9 56 4.6 -0.3 13 15 1013.1 0 11.3 21.2 26.8 69.7 53.2 179.2
07/05 21:20 7.9 56 4.6 -0.3 13 17 1013.1 0 11.3 21.2 26.8 69.7 53.2 179.2
07/05 21:10 8 56 4.63 -0.3 15 20 1013.1 0 11.3 21.2 26.9 69.9 53.5 180.3
07/05 21:00 8 56 4.63 -0.1 13 15 1013.1 0 11.3 21.2 26.9 69.9 53.5 180.3
07/05 20:50 8 56 4.63 -0.1 11 15 1013.1 0 11.3 21.2 26.9 69.9 53.5 180.3
07/05 20:40 8.1 55 4.58 -0.3 13 17 1013.1 0 11.2 21.1 26.7 69.3 52.8 177.9
07/05 20:30 8 55 4.55 -0.5 11 17 1013.1 0 11.2 21.1 26.6 69.1 52.5 176.9
07/05 20:20 8.1 55 4.58 -0.3 11 15 1013.1 0 11.2 21.1 26.7 69.3 52.8 177.9
07/05 20:10 8 55 4.55 -0.5 9 11 1013.1 0 11.2 21.1 26.6 69.1 52.5 176.9
07/05 20:00 8.1 54 4.5 -0.5 9 13 1013.1 0 11.1 21.0 26.4 68.5 51.9 174.5
07/05 19:50 8.2 54 4.52 -0.6 11 17 1013.1 0 11.1 21.0 26.4 68.6 52.0 175.2
07/05 19:40 8.3 52 4.38 -0.9 9 13 1013.1 0 10.8 20.8 25.9 67.2 50.3 169.0
07/05 19:30 8.4 53 4.5 -0.6 13 19 1013.1 0 11.0 20.9 26.3 68.3 51.7 173.9

Last Refresh: 08-May-2026 12:09:35

Bureau of Meteorology